Wacissa, FL (32361)

9:01 PM EDT on July 04, 2015 (GMT -0400)
Chaires Elementary WeatherSTEM | | Change Station
CLOSE
Current Station
Personal Weather Station
Location: Tallahassee, FL
Elevation: 89 ft
Nearby Weather Stations

Elev 89 ft 30.44 °N, 84.12 °W | Updated 13 minutes ago

Partly Cloudy
Partly Cloudy
74.8 °F
Feels Like 73 °F
N
0.0
Wind Variable Wind from NE
Gusts 0.0 mph

Today
High -- | Low -- °F
--% Chance of Precip.
Yesterday
High -- | Low -- °F
Precip. -- in
6:38 AM 8:41 PM
Waning Gibbous, 89% visible
Pressure 30.08 in
Visibility 10.0 miles
Clouds Few 3500 ft
Scattered Clouds 12000 ft
Mostly Cloudy 25000 ft
Heat Index 73 °F
Dew Point 72 °F
Humidity 92%
Rainfall 0.02 in
Snow Depth Not available.
UV 0.0 out of 12
Pollen 2.70 out of 12
Air Quality Not available.
Flu Activity Not available.
METAR KTLH 042353Z 09003KT 10SM FEW035 SCT120 BKN250 24/22 A3008 RMK AO2 SLP186 CB DSNT SW MOV N 60005 T02440217 10328 20239 53000 $

More Conditions Fewer Conditions

Pressure 30.08 in
Visibility 10.0 miles
Clouds Few 3500 ft
Scattered Clouds 12000 ft
Mostly Cloudy 25000 ft
Heat Index 73 °F
Dew Point 72 °F
Humidity 92%
Rainfall 0.02 in
Snow Depth Not available.
UV 0.0 out of 12
Pollen 2.70 out of 12
Air Quality Not available.
Flu Activity Not available.
METAR KTLH 042353Z 09003KT 10SM FEW035 SCT120 BKN250 24/22 A3008 RMK AO2 SLP186 CB DSNT SW MOV N 60005 T02440217 10328 20239 53000 $

More Conditions Fewer Conditions

10-Day Weather Forecast

×

Almanac

Astronomy

Jul. 04, 2015 Rise Set
Actual Time
Civil Twilight
Nautical Twilight
Astronomical Twilight
Moon
Length of Visible Light
Length of Day
Tomorrow will be .
, % of the Moon is Illuminated

Today's Extremes

State Highs State Lows

Community

WunderPhotos

Upload Photos

1,835,125 photos uploaded!

WunderBlogs® & News

Nearby

Air Quality

  Air Quality AQ Index Pollutant
Not available.

Snow Depth

Station Depth Elevation

Earthquake Activity

City Distance Mag. Time & Date
Minimum magnitude displayed is 2.5.

Coastal Water Temperatures

Place Temperature

Stations

Nearby Weather Stations

Station Location Temp. Windchill Dew Point Humidity Wind Precip. Elev Updated Type